Time;durP1;ratioP1;P1;durP2;ratioP2;P2;SDS_P1;SDS_P2;PMS_P1;PMS_P2;Temp;Humidity;BMP_temperature;BMP_pressure;BME280_temperature;BME280_humidity;BME280_pressure;Samples;Min_cycle;Max_cycle;Signal;HPM_P1;HPM_P2
2022/05/27 00:00:46;;;;;;;16.83;6.22;;;;;;;13.76;96.70;101495.91;2054005;28;45319;-70
2022/05/27 00:01:47;;;;;;;17.65;6.05;;;;;;;13.75;97.02;101489.63;2055308;28;44150;-70
2022/05/27 00:02:50;;;;;;;18.52;6.57;;;;;;;13.76;96.47;101498.59;2056647;28;20035;-70
2022/05/27 00:03:53;;;;;;;16.40;6.13;;;;;;;13.75;96.58;101489.63;2055615;28;43963;-71
2022/05/27 00:04:55;;;;;;;15.07;6.22;;;;;;;13.74;96.41;101484.28;2055232;28;45437;-70
2022/05/27 00:05:57;;;;;;;16.17;6.20;;;;;;;13.75;97.01;101488.78;2055480;28;45009;-71
2022/05/27 00:06:58;;;;;;;19.02;6.82;;;;;;;13.74;96.50;101490.56;2055742;28;44523;-71
2022/05/27 00:08:03;;;;;;;16.77;6.28;;;;;;;13.74;96.82;101489.69;2086356;22;46206;-63
2022/05/27 00:09:04;;;;;;;14.70;6.32;;;;;;;13.74;96.88;101493.25;2073936;28;43491;-63
2022/05/27 00:10:08;;;;;;;14.15;5.88;;;;;;;13.74;96.98;101487.88;2071173;28;45505;-63
2022/05/27 00:11:10;;;;;;;16.58;6.05;;;;;;;13.75;97.06;101494.16;2071378;28;38899;-62
2022/05/27 00:12:11;;;;;;;17.65;6.50;;;;;;;13.75;97.37;101486.06;2071058;28;45629;-62
2022/05/27 00:13:13;;;;;;;17.55;5.88;;;;;;;13.75;97.55;101488.78;2071250;28;46246;-62
2022/05/27 00:14:18;;;;;;;14.45;6.10;;;;;;;13.73;97.01;101486.13;2071631;28;43083;-62
2022/05/27 00:15:20;;;;;;;20.90;6.47;;;;;;;13.73;97.12;101472.66;2072182;28;45547;-62
2022/05/27 00:16:25;;;;;;;15.82;6.40;;;;;;;13.74;97.04;101471.72;2071747;28;40708;-63
2022/05/27 00:17:27;;;;;;;18.17;6.78;;;;;;;13.74;97.27;101481.59;2071501;28;45640;-62
2022/05/27 00:18:31;;;;;;;14.10;6.50;;;;;;;13.73;97.62;101469.97;2072067;28;45522;-62
2022/05/27 00:19:32;;;;;;;14.40;6.53;;;;;;;13.73;96.94;101469.97;2069700;28;40706;-63
2022/05/27 00:20:36;;;;;;;16.70;7.35;;;;;;;13.73;97.50;101466.41;2063742;28;43794;-62
2022/05/27 00:21:39;;;;;;;18.05;6.65;;;;;;;13.72;98.16;101481.66;2062490;28;44938;-62
2022/05/27 00:22:42;;;;;;;22.15;6.75;;;;;;;13.71;98.27;101481.69;2063090;28;43357;-62
2022/05/27 00:23:44;;;;;;;19.45;7.60;;;;;;;13.71;98.03;101471.81;2063496;28;45457;-62
2022/05/27 00:24:46;;;;;;;18.20;7.00;;;;;;;13.69;97.89;101479.06;2063737;28;43629;-62
2022/05/27 00:25:47;;;;;;;22.33;7.35;;;;;;;13.68;98.53;101474.59;2062544;28;45190;-62
2022/05/27 00:26:49;;;;;;;19.33;7.60;;;;;;;13.68;98.66;101465.63;2063328;28;46335;-62
2022/05/27 00:27:51;;;;;;;16.83;7.57;;;;;;;13.67;98.45;101462.03;2064225;28;26162;-62
2022/05/27 00:28:52;;;;;;;15.98;6.95;;;;;;;13.66;98.56;101462.13;2063472;28;43972;-62
2022/05/27 00:30:03;;;;;;;18.75;6.95;;;;;;;13.63;98.06;101465.75;2063178;28;45932;-62
2022/05/27 00:31:05;;;;;;;17.38;7.20;;;;;;;13.63;98.90;101471.13;2063641;28;43945;-62
2022/05/27 00:32:09;;;;;;;18.52;7.18;;;;;;;13.63;98.67;101481.91;2063150;28;46946;-62
2022/05/27 00:33:11;;;;;;;17.60;7.93;;;;;;;13.60;98.82;101476.59;2063583;28;39851;-64
2022/05/27 00:34:14;;;;;;;18.60;7.38;;;;;;;13.60;98.62;101483.78;2063044;28;45421;-62
2022/05/27 00:35:16;;;;;;;16.15;8.23;;;;;;;13.58;99.29;101488.34;2062789;28;43529;-61
2022/05/27 00:36:18;;;;;;;16.17;7.63;;;;;;;13.56;99.91;101485.69;2062599;28;44138;-64
2022/05/27 00:37:20;;;;;;;17.30;8.27;;;;;;;13.53;99.73;101466.91;2063692;28;44915;-64
2022/05/27 00:38:21;;;;;;;17.42;7.90;;;;;;;13.51;99.57;101468.78;2063702;28;42998;-64
2022/05/27 00:39:23;;;;;;;16.77;7.63;;;;;;;13.49;100.00;101465.25;2066664;28;42788;-64
2022/05/27 00:40:33;;;;;;;13.68;6.97;;;;;;;13.46;99.64;101454.56;2063915;28;45707;-64
2022/05/27 00:41:35;;;;;;;14.23;6.68;;;;;;;13.43;100.00;101460.03;2063586;28;42970;-64
2022/05/27 00:42:41;;;;;;;12.82;6.55;;;;;;;13.41;100.00;101472.66;2063231;28;45746;-64
2022/05/27 00:43:44;;;;;;;18.17;7.05;;;;;;;13.39;100.00;101469.09;2063335;28;45940;-64
2022/05/27 00:44:45;;;;;;;19.27;6.57;;;;;;;13.38;99.73;101451.22;2063576;28;44660;-64
2022/05/27 00:46:05;;;;;;;15.23;5.90;;;;;;;13.34;99.65;101431.56;2063209;28;44872;-64
2022/05/27 00:47:17;;;;;;;17.58;6.00;;;;;;;13.31;100.00;101467.47;2063696;28;44638;-64
2022/05/27 00:48:20;;;;;;;18.05;6.47;;;;;;;13.28;99.59;101489.06;2062937;28;45618;-64
2022/05/27 00:49:27;;;;;;;11.43;5.82;;;;;;;13.27;99.89;101481.91;2063391;28;40602;-64
2022/05/27 00:50:38;;;;;;;14.70;6.43;;;;;;;13.26;100.00;101461.34;2063312;28;44465;-64
2022/05/27 00:52:03;;;;;;;;;;;;;;;13.25;100.00;101473.00;2063984;28;47535;-62
2022/05/27 00:53:07;;;;;;;12.57;6.10;;;;;;;13.23;100.00;101482.03;2063727;28;43354;-64
2022/05/27 00:54:24;;;;;;;14.63;6.28;;;;;;;13.22;100.00;101488.31;2062589;28;45368;-64
2022/05/27 00:55:29;;;;;;;14.55;5.32;;;;;;;13.22;100.00;101466.81;2063243;28;43776;-64
2022/05/27 00:56:36;;;;;;;12.80;5.10;;;;;;;13.20;100.00;101468.66;2063309;28;45019;-64
2022/05/27 00:57:44;;;;;;;13.20;5.90;;;;;;;13.18;100.00;101466.00;2062757;28;46238;-62
2022/05/27 00:58:57;;;;;;;15.20;5.90;;;;;;;13.18;100.00;101450.75;2062856;28;42121;-61
2022/05/27 01:00:08;;;;;;;16.08;5.95;;;;;;;13.16;100.00;101449.03;2063778;28;44696;-64
2022/05/27 01:01:13;;;;;;;12.23;5.10;;;;;;;13.14;99.95;101459.81;2062679;28;43486;-64
2022/05/27 01:02:17;;;;;;;13.40;4.95;;;;;;;13.13;99.74;101458.03;2063162;28;46941;-64
2022/05/27 01:03:22;;;;;;;14.73;5.25;;;;;;;13.11;99.57;101459.91;2062617;28;42934;-64
2022/05/27 01:04:28;;;;;;;15.00;5.13;;;;;;;13.10;99.96;101452.78;2062759;28;44901;-62
2022/05/27 01:05:30;;;;;;;14.57;5.05;;;;;;;13.09;100.00;101456.38;2062664;28;43674;-64
2022/05/27 01:06:31;;;;;;;16.27;4.63;;;;;;;13.07;99.47;101439.41;2062582;28;46289;-62
2022/05/27 01:07:33;;;;;;;14.00;5.10;;;;;;;13.05;99.34;101441.25;2062900;28;44457;-61
2022/05/27 01:08:35;;;;;;;15.25;5.18;;;;;;;13.05;99.69;101459.19;2063498;28;43939;-64
2022/05/27 01:09:43;;;;;;;13.57;4.82;;;;;;;13.04;99.39;101478.91;2065169;28;20149;-64
2022/05/27 01:11:18;;;;;;;15.40;4.50;;;;;;;13.04;99.38;101470.84;2064118;28;20030;-64
2022/05/27 01:12:34;;;;;;;16.00;4.80;;;;;;;13.01;99.08;101473.59;2062454;28;46510;-61
2022/05/27 01:14:04;;;;;;;18.75;5.05;;;;;;;12.99;99.34;101479.91;2062792;28;42672;-62
2022/05/27 01:15:34;;;;;;;13.52;4.47;;;;;;;12.96;98.71;101473.75;2063202;28;44965;-62
2022/05/27 01:17:12;;;;;;;22.38;4.25;;;;;;;12.94;98.57;101484.53;2063612;28;45653;-62
2022/05/27 01:20:31;;;;;;;12.73;3.33;;;;;;;12.89;97.20;101496.31;2067966;28;46180;-62
2022/05/27 01:22:25;;;;;;;17.00;3.53;;;;;;;12.87;97.28;101495.47;2070314;28;44498;-63
2022/05/27 01:23:41;;;;;;;16.52;3.50;;;;;;;12.85;96.98;101495.50;2072357;28;20042;-63
2022/05/27 01:25:05;;;;;;;20.50;4.10;;;;;;;12.84;97.51;101499.09;2071515;28;45658;-63
2022/05/27 01:26:41;;;;;;;13.90;3.08;;;;;;;12.82;97.29;101494.69;2071017;28;45846;-63
2022/05/27 01:28:33;;;;;;;14.35;3.13;;;;;;;12.79;97.35;101501.00;2070326;28;46323;-63
2022/05/27 01:30:04;;;;;;;13.15;2.60;;;;;;;12.77;96.61;101498.34;2079111;28;44247;-62
2022/05/27 01:31:27;;;;;;;16.35;3.20;;;;;;;12.74;97.44;101485.00;2075781;28;45400;-63
2022/05/27 01:32:52;;;;;;;14.05;2.90;;;;;;;12.74;96.52;101486.78;2070885;28;46637;-63
2022/05/27 01:34:29;;;;;;;14.52;3.22;;;;;;;12.70;96.21;101493.16;2071311;28;32584;-63
2022/05/27 01:35:36;;;;;;;17.15;2.92;;;;;;;12.68;94.91;101497.69;2070647;28;45159;-63
2022/05/27 01:36:54;;;;;;;11.93;2.47;;;;;;;12.67;94.54;101496.81;2070292;28;45696;-63
2022/05/27 01:38:27;;;;;;;15.93;2.63;;;;;;;12.66;95.42;101500.41;2064987;28;43754;-63
2022/05/27 01:39:49;;;;;;;17.08;2.30;;;;;;;12.62;94.40;101508.56;2068395;28;45149;-63
2022/05/27 01:41:29;;;;;;;14.05;2.58;;;;;;;12.59;93.97;101505.00;2071873;28;43346;-62
2022/05/27 01:42:53;;;;;;;12.95;2.35;;;;;;;12.54;94.39;101506.94;2071191;28;43085;-62
2022/05/27 01:44:11;;;;;;;13.25;1.98;;;;;;;12.51;93.42;101515.06;2070825;28;44864;-62
2022/05/27 01:45:40;;;;;;;14.45;1.70;;;;;;;12.49;93.50;101522.28;2070527;28;45301;-63
2022/05/27 01:46:47;;;;;;;13.07;2.05;;;;;;;12.47;93.71;101520.53;2068401;28;37884;-63
2022/05/27 01:48:01;;;;;;;18.30;2.25;;;;;;;12.46;93.63;101516.94;2059928;28;20124;-63
2022/05/27 01:49:35;;;;;;;12.00;2.17;;;;;;;12.42;93.79;101515.25;2064730;28;44549;-63
2022/05/27 01:50:49;;;;;;;10.63;1.92;;;;;;;12.40;92.95;101519.78;2070127;28;43500;-63
2022/05/27 01:52:04;;;;;;;15.13;2.33;;;;;;;12.39;93.66;101523.38;2070759;28;45698;-63
2022/05/27 01:53:54;;;;;;;15.95;2.15;;;;;;;12.37;92.20;101519.84;2070783;28;45330;-62
2022/05/27 01:55:24;;;;;;;10.93;2.00;;;;;;;12.31;92.35;101520.88;2062759;28;44481;-62
2022/05/27 01:56:40;;;;;;;12.38;1.88;;;;;;;12.26;92.11;101522.75;2070539;28;45370;-64
2022/05/27 01:57:58;;;;;;;9.50;1.77;;;;;;;12.22;92.68;101519.25;2067780;28;45680;-62
2022/05/27 01:59:09;;;;;;;12.80;2.28;;;;;;;12.19;92.33;101518.41;2070753;28;43762;-64
2022/05/27 02:00:22;;;;;;;12.20;2.08;;;;;;;12.13;92.00;101521.22;2070980;28;45502;-62
2022/05/27 02:01:32;;;;;;;16.45;2.17;;;;;;;12.09;91.96;101520.38;2070354;28;43093;-62
2022/05/27 02:02:44;;;;;;;;;;;;;;;12.07;92.84;101526.72;2065253;28;44297;-62
2022/05/27 02:04:01;;;;;;;14.98;2.10;;;;;;;12.00;92.22;101520.56;2071398;28;44886;-63
2022/05/27 02:05:22;;;;;;;14.10;1.98;;;;;;;11.93;92.69;101529.66;2069793;28;44365;-63
2022/05/27 02:06:32;;;;;;;16.25;1.80;;;;;;;11.93;92.17;101524.28;2070482;28;44029;-64
2022/05/27 02:07:52;;;;;;;11.05;1.70;;;;;;;11.86;92.42;101523.47;2070051;28;45818;-64
2022/05/27 02:09:00;;;;;;;11.25;1.65;;;;;;;11.80;92.58;101526.28;2072014;28;20078;-62
2022/05/27 02:10:13;;;;;;;11.85;1.67;;;;;;;11.76;92.95;101524.59;2070506;28;44795;-64
2022/05/27 02:11:20;;;;;;;15.57;1.95;;;;;;;11.70;93.24;101522.00;2070852;28;42443;-63
2022/05/27 02:12:54;;;;;;;10.32;1.77;;;;;;;11.66;93.45;101515.81;2070736;28;45442;-64
2022/05/27 02:14:23;;;;;;;17.65;2.05;;;;;;;11.61;93.28;101525.72;2054428;28;44770;-62
2022/05/27 02:15:35;;;;;;;10.60;1.30;;;;;;;11.60;93.35;101529.34;2070492;28;45056;-63
2022/05/27 02:16:45;;;;;;;12.70;2.25;;;;;;;11.53;93.57;101525.88;2070559;28;45064;-63
2022/05/27 02:17:56;;;;;;;11.95;1.83;;;;;;;11.46;93.75;101529.56;2064443;28;42041;-63
2022/05/27 02:19:09;;;;;;;10.80;1.70;;;;;;;11.50;94.69;101530.41;2064863;28;45453;-63
2022/05/27 02:20:31;;;;;;;14.20;1.65;;;;;;;11.46;93.97;101529.56;2070308;28;44034;-62
2022/05/27 02:21:45;;;;;;;15.65;2.50;;;;;;;11.42;93.44;101526.06;2070797;28;45323;-62
2022/05/27 02:22:56;;;;;;;13.18;1.92;;;;;;;11.41;93.24;101534.13;2070526;28;44538;-62
2022/05/27 02:24:21;;;;;;;11.07;1.85;;;;;;;11.39;93.49;101527.91;2069149;28;44328;-62
2022/05/27 02:25:32;;;;;;;16.67;2.10;;;;;;;11.38;93.77;101537.75;2067692;28;20043;-63
2022/05/27 02:26:42;;;;;;;10.25;1.70;;;;;;;11.33;93.45;101538.75;2065947;28;43503;-63
2022/05/27 02:28:02;;;;;;;12.20;1.75;;;;;;;11.33;93.30;101542.31;2064869;28;45269;-63
2022/05/27 02:29:20;;;;;;;11.30;2.03;;;;;;;11.23;93.46;101538.91;2070575;28;43907;-63
2022/05/27 02:30:29;;;;;;;14.93;1.98;;;;;;;11.19;93.73;101533.59;2070254;28;45814;-63
2022/05/27 02:31:35;;;;;;;12.68;2.13;;;;;;;11.18;94.21;101542.53;2071346;28;43929;-63
2022/05/27 02:32:44;;;;;;;11.13;1.67;;;;;;;11.16;94.14;101541.69;2063667;28;46746;-62
2022/05/27 02:35:27;;;;;;;13.05;2.40;;;;;;;11.07;94.24;101546.28;2070370;28;44058;-62
2022/05/27 02:36:38;;;;;;;11.13;1.90;;;;;;;11.11;94.60;101543.53;2069976;28;45649;-63
2022/05/27 02:37:51;;;;;;;16.23;1.90;;;;;;;11.05;94.71;101540.06;2064981;28;29966;-62
2022/05/27 02:38:53;;;;;;;16.25;1.80;;;;;;;11.06;95.17;101544.50;2064702;28;46235;-62
2022/05/27 02:39:57;;;;;;;16.80;2.38;;;;;;;11.03;94.58;101549.03;2070772;28;43105;-63
2022/05/27 02:41:29;;;;;;;10.95;1.38;;;;;;;10.99;94.65;101550.00;2071823;28;20042;-64
2022/05/27 02:43:24;;;;;;;14.93;1.83;;;;;;;10.97;94.93;101546.47;2070177;28;45547;-64
2022/05/27 02:44:44;;;;;;;11.70;1.58;;;;;;;10.92;94.83;101537.59;2047449;28;42584;-64
2022/05/27 02:46:13;;;;;;;16.40;2.47;;;;;;;10.91;94.94;101542.06;2071245;28;44166;-65
2022/05/27 02:47:48;;;;;;;11.20;1.92;;;;;;;10.88;95.35;101552.84;2078230;28;42298;-64
2022/05/27 02:49:52;;;;;;;13.30;1.80;;;;;;;10.85;95.41;101537.66;2074453;28;43096;-64
2022/05/27 02:51:23;;;;;;;11.57;1.80;;;;;;;10.79;94.96;101548.47;2061171;28;44552;-64
2022/05/27 02:52:45;;;;;;;9.95;1.67;;;;;;;10.78;95.35;101553.84;2071133;28;42804;-64
2022/05/27 02:54:00;;;;;;;14.45;1.52;;;;;;;10.74;95.08;101555.69;2069874;28;45989;-64
2022/05/27 02:55:15;;;;;;;11.95;1.70;;;;;;;10.68;95.36;101550.44;2070103;28;42535;-64
2022/05/27 02:56:43;;;;;;;7.78;1.30;;;;;;;10.62;95.04;101554.09;2072044;28;20042;-64
2022/05/27 02:57:52;;;;;;;11.80;1.80;;;;;;;10.61;95.37;101552.31;2070215;28;46382;-63
2022/05/27 02:58:56;;;;;;;15.32;2.25;;;;;;;10.59;95.21;101553.25;2062012;28;44394;-64
2022/05/27 03:00:03;;;;;;;13.35;1.95;;;;;;;10.58;95.82;101549.66;2062177;28;45411;-63
2022/05/27 03:01:05;;;;;;;13.57;2.33;;;;;;;10.57;96.06;101555.94;2070710;28;44337;-64
2022/05/27 03:02:12;;;;;;;12.25;1.98;;;;;;;10.55;95.97;101552.41;2069807;28;44419;-64
2022/05/27 03:03:15;;;;;;;13.68;1.75;;;;;;;10.56;96.27;101556.81;2070022;28;46130;-63
2022/05/27 03:04:20;;;;;;;15.23;2.10;;;;;;;10.53;95.93;101562.22;2070810;28;44414;-64
2022/05/27 03:05:30;;;;;;;13.95;2.15;;;;;;;10.52;95.96;101557.78;2070225;28;37200;-64
2022/05/27 03:07:01;;;;;;;17.88;2.42;;;;;;;10.54;96.12;101566.69;2070728;28;36025;-64
2022/05/27 03:08:27;;;;;;;10.93;1.83;;;;;;;10.53;96.33;101553.31;2069821;28;43778;-64
2022/05/27 03:09:51;;;;;;;11.05;1.70;;;;;;;10.53;95.86;101554.19;2070350;28;46671;-64
2022/05/27 03:10:59;;;;;;;15.80;1.98;;;;;;;10.54;95.74;101547.94;2070421;28;42094;-64
2022/05/27 03:12:28;;;;;;;12.27;2.00;;;;;;;10.54;95.53;101552.41;2062441;28;30320;-64
2022/05/27 03:14:07;;;;;;;12.55;1.95;;;;;;;10.52;95.45;101555.09;2067080;28;43310;-64
2022/05/27 03:15:30;;;;;;;11.90;1.63;;;;;;;10.52;95.38;101560.47;2072993;28;43402;-64
2022/05/27 03:17:23;;;;;;;11.85;1.75;;;;;;;10.54;94.71;101552.41;2071420;28;20125;-64
2022/05/27 03:19:12;;;;;;;13.68;1.80;;;;;;;10.57;93.50;101550.59;2070853;28;42997;-64
2022/05/27 03:20:29;;;;;;;13.05;1.90;;;;;;;10.57;92.63;101547.91;2069839;28;44540;-64
2022/05/27 03:21:42;;;;;;;15.75;1.95;;;;;;;10.58;92.42;101559.50;2071054;28;44043;-64
2022/05/27 03:23:16;;;;;;;9.40;1.40;;;;;;;10.57;92.59;101558.63;2069791;28;40056;-63
2022/05/27 03:25:05;;;;;;;8.75;1.40;;;;;;;10.57;92.10;101549.66;2069804;28;46165;-64
2022/05/27 03:26:35;;;;;;;12.52;1.30;;;;;;;10.58;91.64;101548.78;2045928;28;41862;-63
2022/05/27 03:27:47;;;;;;;8.98;1.25;;;;;;;10.58;91.17;101549.66;2071265;28;45554;-64
2022/05/27 03:29:31;;;;;;;10.77;1.35;;;;;;;10.60;90.91;101547.84;2070193;28;46170;-64
2022/05/27 03:30:45;;;;;;;13.93;1.13;;;;;;;10.61;90.83;101559.47;2071117;28;30933;-64
2022/05/27 03:32:28;;;;;;;9.57;1.10;;;;;;;10.60;90.53;101546.97;2070950;28;20051;-63
2022/05/27 03:33:49;;;;;;;9.63;1.27;;;;;;;10.62;90.47;101558.53;2070228;28;45700;-64
2022/05/27 03:35:17;;;;;;;8.13;1.23;;;;;;;10.63;90.10;101558.53;2070714;28;42905;-63
2022/05/27 03:36:39;;;;;;;11.82;1.50;;;;;;;10.64;89.85;101554.03;2071961;28;44053;-64
2022/05/27 03:38:06;;;;;;;11.05;0.93;;;;;;;10.67;90.06;101559.38;2071674;28;43895;-64
2022/05/27 03:39:29;;;;;;;9.30;0.93;;;;;;;10.68;89.36;101550.44;2072654;28;20073;-64
2022/05/27 03:40:45;;;;;;;16.55;1.40;;;;;;;10.69;89.39;101555.78;2072355;28;44377;-64
2022/05/27 03:41:58;;;;;;;6.00;0.82;;;;;;;10.72;89.50;101552.16;2071422;28;42917;-64
2022/05/27 03:43:01;;;;;;;9.30;1.00;;;;;;;10.74;89.18;101554.81;2071165;28;44757;-64
2022/05/27 03:44:06;;;;;;;10.23;1.02;;;;;;;10.76;89.05;101550.31;2064376;28;43580;-64
2022/05/27 03:45:15;;;;;;;6.43;0.85;;;;;;;10.78;89.07;101552.06;2064581;28;44094;-64
2022/05/27 03:46:36;;;;;;;10.40;1.30;;;;;;;10.80;88.84;101552.03;2071715;28;45563;-64
2022/05/27 03:47:41;;;;;;;8.65;1.00;;;;;;;10.84;88.34;101548.44;2071123;28;45017;-64
2022/05/27 03:48:45;;;;;;;10.32;1.17;;;;;;;10.86;88.38;101554.66;2072721;28;46029;-64
2022/05/27 03:49:47;;;;;;;9.23;0.93;;;;;;;10.89;88.41;101549.22;2071484;28;44506;-64
2022/05/27 03:51:01;;;;;;;8.77;1.00;;;;;;;10.91;87.50;101552.78;2072064;28;46076;-64
2022/05/27 03:52:13;;;;;;;9.57;1.30;;;;;;;11.02;87.55;101549.97;2071102;28;46062;-64
2022/05/27 03:53:15;;;;;;;8.20;0.75;;;;;;;11.12;87.38;101546.22;2072278;28;39192;-64
2022/05/27 03:54:17;;;;;;;5.90;0.65;;;;;;;11.23;87.13;101546.03;2071385;28;43330;-64
2022/05/27 03:55:25;;;;;;;12.60;1.50;;;;;;;11.30;86.84;101545.03;2071809;28;44640;-64
2022/05/27 03:56:28;;;;;;;7.93;1.30;;;;;;;11.35;86.00;101545.84;2072041;28;44051;-63
2022/05/27 03:57:30;;;;;;;9.85;1.50;;;;;;;11.38;86.05;101551.16;2071831;28;45154;-64
2022/05/27 03:58:31;;;;;;;13.75;1.77;;;;;;;11.45;85.93;101551.97;2072402;28;36763;-63
2022/05/27 03:59:33;;;;;;;9.15;1.33;;;;;;;11.51;85.63;101549.16;2071643;28;42934;-64
2022/05/27 04:00:35;;;;;;;8.70;2.33;;;;;;;11.62;85.13;101549.84;2071964;28;43357;-64
2022/05/27 04:01:42;;;;;;;8.18;2.10;;;;;;;11.73;84.82;101555.03;2071929;28;45455;-64
2022/05/27 04:02:44;;;;;;;14.75;2.72;;;;;;;11.79;84.32;101551.34;2071611;28;46624;-63
2022/05/27 04:03:46;;;;;;;17.20;2.80;;;;;;;11.80;84.20;101558.50;2071825;28;44375;-63
2022/05/27 04:04:48;;;;;;;10.82;2.72;;;;;;;11.84;84.33;101550.38;2071775;28;43954;-63
2022/05/27 04:05:50;;;;;;;12.63;3.70;;;;;;;11.82;84.21;101552.16;2071489;28;43290;-63
2022/05/27 04:06:52;;;;;;;12.25;2.88;;;;;;;11.88;83.29;101552.97;2071911;28;45153;-64
2022/05/27 04:07:54;;;;;;;11.77;3.28;;;;;;;11.96;83.62;101557.31;2070908;28;44804;-63
2022/05/27 04:08:57;;;;;;;11.68;3.25;;;;;;;12.24;84.17;101551.44;2072205;28;42329;-63
2022/05/27 04:09:59;;;;;;;11.15;2.95;;;;;;;12.29;83.38;101562.97;2070865;28;44461;-64
2022/05/27 04:11:00;;;;;;;8.55;2.78;;;;;;;12.27;82.21;101559.41;2071402;28;43236;-63
2022/05/27 04:12:04;;;;;;;10.18;2.38;;;;;;;12.33;82.54;101559.31;2071133;28;45488;-63
2022/05/27 04:13:06;;;;;;;14.55;2.58;;;;;;;12.37;82.60;101557.44;2071848;28;46115;-63
2022/05/27 04:14:08;;;;;;;12.70;2.58;;;;;;;12.46;82.58;101562.63;2071763;28;44421;-63
2022/05/27 04:15:10;;;;;;;14.93;2.75;;;;;;;12.73;82.34;101560.25;2072316;28;45596;-64
2022/05/27 04:16:12;;;;;;;12.00;1.92;;;;;;;12.96;81.17;101565.13;2070958;28;44003;-63
2022/05/27 04:17:32;;;;;;;13.35;2.70;;;;;;;13.32;80.53;101559.84;2071466;28;44363;-63
2022/05/27 04:18:33;;;;;;;8.27;2.17;;;;;;;13.86;79.10;101567.41;2079547;28;43854;-63
2022/05/27 04:19:35;;;;;;;7.85;1.90;;;;;;;13.99;77.65;101565.25;2080969;28;44959;-63
2022/05/27 04:20:37;;;;;;;8.50;1.65;;;;;;;14.08;77.58;101562.31;2071795;28;33830;-63
2022/05/27 04:21:38;;;;;;;13.23;2.00;;;;;;;13.98;76.00;101558.13;2071622;28;46229;-63
2022/05/27 04:22:43;;;;;;;9.32;1.67;;;;;;;14.17;76.47;101565.69;2071830;28;41762;-61
2022/05/27 04:23:46;;;;;;;9.73;1.83;;;;;;;14.40;75.95;101556.97;2071937;28;43324;-63
2022/05/27 04:24:48;;;;;;;6.00;1.35;;;;;;;14.60;75.38;101554.59;2071464;28;44405;-63
2022/05/27 04:25:50;;;;;;;9.32;1.40;;;;;;;14.93;74.80;101561.69;2071439;28;45465;-63
2022/05/27 04:26:51;;;;;;;6.95;1.30;;;;;;;15.00;73.80;101564.16;2071502;28;46471;-63
2022/05/27 04:27:53;;;;;;;10.65;1.48;;;;;;;15.16;71.64;101559.13;2071495;28;44504;-63
2022/05/27 04:28:55;;;;;;;7.32;1.40;;;;;;;15.41;71.24;101552.94;2079129;28;43188;-63
2022/05/27 04:29:57;;;;;;;9.10;1.92;;;;;;;15.75;70.17;101557.25;2079380;28;43232;-63
2022/05/27 04:30:58;;;;;;;9.60;1.23;;;;;;;16.16;68.89;101554.88;2071374;28;43923;-63
2022/05/27 04:32:02;;;;;;;5.80;0.88;;;;;;;16.54;67.76;101561.56;2070994;28;44885;-63
2022/05/27 04:33:04;;;;;;;9.15;1.27;;;;;;;16.71;64.88;101554.66;2070579;28;44832;-63
2022/05/27 04:34:10;;;;;;;6.45;1.20;;;;;;;17.43;65.71;101559.03;2071894;28;45307;-63
2022/05/27 04:35:12;;;;;;;8.18;1.10;;;;;;;17.96;62.34;101555.84;2071711;28;44595;-63
2022/05/27 04:36:15;;;;;;;5.68;1.20;;;;;;;18.27;60.48;101549.94;2071599;28;45228;-63
2022/05/27 04:37:17;;;;;;;10.32;1.20;;;;;;;18.28;59.06;101548.97;2070933;28;46441;-63
2022/05/27 04:38:18;;;;;;;7.97;1.13;;;;;;;18.35;59.48;101546.00;2071576;28;42953;-63
2022/05/27 04:39:22;;;;;;;10.13;1.20;;;;;;;18.16;59.45;101546.84;2071442;28;35839;-63
2022/05/27 04:40:24;;;;;;;6.07;1.08;;;;;;;18.89;57.34;101545.25;2071316;28;44931;-63
2022/05/27 04:41:28;;;;;;;11.70;1.77;;;;;;;18.95;55.68;101538.69;2071672;28;43053;-63
2022/05/27 04:42:30;;;;;;;9.50;1.60;;;;;;;19.33;56.22;101537.75;2071284;28;43426;-63
2022/05/27 04:43:33;;;;;;;7.00;1.30;;;;;;;19.25;53.58;101541.69;2070794;28;44851;-63
2022/05/27 04:44:35;;;;;;;10.77;1.30;;;;;;;19.85;53.62;101537.81;2071454;28;35005;-63
2022/05/27 04:45:37;;;;;;;6.05;1.40;;;;;;;20.06;52.54;101548.50;2071451;28;46769;-63
2022/05/27 04:46:38;;;;;;;5.75;1.25;;;;;;;19.72;53.11;101539.38;2071129;28;42234;-64
2022/05/27 04:47:40;;;;;;;7.95;1.27;;;;;;;19.73;53.70;101542.03;2071020;28;45610;-63
2022/05/27 04:48:42;;;;;;;8.43;1.65;;;;;;;19.72;52.97;101539.38;2071873;28;43573;-63
2022/05/27 04:49:53;;;;;;;7.93;1.17;;;;;;;19.12;54.06;101537.84;2073619;28;45180;-63
2022/05/27 04:50:55;;;;;;;10.40;1.20;;;;;;;19.10;55.26;101538.88;2071545;28;45176;-63
2022/05/27 04:51:57;;;;;;;6.28;1.08;;;;;;;18.61;55.87;101545.69;2071497;28;43324;-63
2022/05/27 04:52:59;;;;;;;7.25;1.30;;;;;;;18.15;58.41;101545.06;2071573;28;44029;-64
2022/05/27 04:54:01;;;;;;;4.10;0.80;;;;;;;17.94;59.78;101549.63;2071491;28;45521;-63
2022/05/27 04:55:07;;;;;;;5.38;1.02;;;;;;;17.55;59.25;101547.69;2071594;28;45469;-64
2022/05/27 04:56:12;;;;;;;7.72;0.85;;;;;;;17.81;58.77;101546.53;2071180;28;46019;-64
2022/05/27 04:57:22;;;;;;;8.38;0.90;;;;;;;17.66;58.68;101547.22;2071632;28;42347;-63
2022/05/27 04:58:24;;;;;;;8.48;1.20;;;;;;;17.07;60.54;101552.34;2070369;28;46600;-63
2022/05/27 04:59:26;;;;;;;7.22;0.95;;;;;;;17.17;61.28;101558.25;2071279;28;44498;-64
2022/05/27 05:00:38;;;;;;;7.03;0.73;;;;;;;17.06;61.16;101550.56;2071741;28;44131;-64
2022/05/27 05:01:40;;;;;;;7.95;1.20;;;;;;;16.85;61.44;101554.13;2070934;28;45822;-63
2022/05/27 05:02:44;;;;;;;8.38;1.10;;;;;;;16.40;63.60;101558.50;2070950;28;39515;-63
2022/05/27 05:03:46;;;;;;;5.93;1.00;;;;;;;16.46;64.68;101558.28;2071705;28;44634;-64
2022/05/27 05:04:49;;;;;;;8.85;1.10;;;;;;;16.50;64.25;101556.34;2071233;28;46807;-64
2022/05/27 05:05:51;;;;;;;6.78;1.50;;;;;;;16.82;62.12;101554.22;2070889;28;44716;-63
2022/05/27 05:06:52;;;;;;;9.15;1.15;;;;;;;17.21;62.52;101556.28;2070580;28;45134;-64
2022/05/27 05:08:11;;;;;;;8.60;1.17;;;;;;;17.76;59.54;101556.69;2070905;28;44310;-64
2022/05/27 05:09:13;;;;;;;7.63;0.93;;;;;;;18.17;59.12;101558.56;2070600;28;45656;-63
2022/05/27 05:10:19;;;;;;;8.95;1.30;;;;;;;18.38;57.54;101559.44;2071165;28;46376;-63
2022/05/27 05:11:20;;;;;;;9.38;1.10;;;;;;;18.95;56.58;101557.69;2070485;28;44636;-64
2022/05/27 05:12:22;;;;;;;9.15;1.08;;;;;;;19.19;56.21;101552.00;2071014;28;45252;-63
2022/05/27 05:13:24;;;;;;;6.80;1.10;;;;;;;19.71;54.61;101549.38;2071186;28;43899;-63
2022/05/27 05:14:26;;;;;;;7.32;1.10;;;;;;;20.05;53.13;101552.22;2071681;28;45268;-63
2022/05/27 05:15:28;;;;;;;9.68;1.30;;;;;;;20.77;51.56;101557.34;2071131;28;46199;-63
2022/05/27 05:16:30;;;;;;;7.95;1.15;;;;;;;20.80;50.85;101553.56;2070779;28;42933;-63
2022/05/27 05:17:32;;;;;;;5.38;1.13;;;;;;;20.53;50.19;101551.38;2070645;28;45721;-64
2022/05/27 05:18:34;;;;;;;10.23;1.48;;;;;;;21.27;46.72;101549.97;2070684;28;44503;-63
2022/05/27 05:19:35;;;;;;;5.47;1.00;;;;;;;22.16;46.83;101551.94;2071485;28;43608;-64
2022/05/27 05:20:40;;;;;;;5.30;1.05;;;;;;;22.01;46.54;101548.31;2073502;28;45173;-64
2022/05/27 05:21:42;;;;;;;8.95;1.25;;;;;;;22.43;44.25;101552.13;2070493;28;42373;-64
2022/05/27 05:22:43;;;;;;;8.18;1.25;;;;;;;22.38;45.82;101556.06;2063509;28;45610;-64
2022/05/27 05:23:45;;;;;;;6.75;1.30;;;;;;;21.39;46.86;101561.09;2070429;28;46445;-64
2022/05/27 05:24:47;;;;;;;8.02;1.02;;;;;;;21.17;47.25;101554.19;2071492;28;44425;-64
2022/05/27 05:25:48;;;;;;;8.35;1.42;;;;;;;20.61;48.20;101564.59;2070870;28;45268;-64
2022/05/27 05:26:52;;;;;;;7.20;1.30;;;;;;;20.45;48.48;101553.63;2071230;28;45789;-64
2022/05/27 05:27:54;;;;;;;7.20;1.33;;;;;;;20.00;49.65;101552.44;2070906;28;45148;-64
2022/05/27 05:28:58;;;;;;;9.43;1.33;;;;;;;19.70;48.20;101560.31;2071590;28;46280;-64
2022/05/27 05:30:02;;;;;;;7.45;1.25;;;;;;;20.29;49.99;101559.03;2071203;28;40286;-64
2022/05/27 05:31:04;;;;;;;6.25;1.17;;;;;;;20.45;47.71;101559.06;2070523;28;42937;-64